.
WxDataArchive / Data Records for 2014-06-01
2014-05-31 June 2014 2014-06-02

Data Records for Sunday, 01 June 2014

Time	Temp	Chill	HIndex	Humid	Dewpt	 Wind 	HiWind	WindDir	Rain 	Barom
-----	----	-----	------	-----	-----	------	------	-------	-----	-----
00:00	66.9	66.9	66.9	51	48.2	2	4	90	0.00	30.128 
00:05	66.8	66.8	66.8	52	48.6	1	5	68	0.00	30.128 
00:10	66.6	66.6	66.6	53	48.9	1	3	68	0.00	30.128 
00:15	66.3	66.3	66.3	53	48.6	1	4	68	0.00	30.131 
00:20	66.1	66.1	66.1	54	49.0	1	6	90	0.00	30.131 
00:25	65.8	65.8	65.8	54	48.7	2	5	90	0.00	30.131 
00:30	65.6	65.6	65.6	54	48.5	1	4	90	0.00	30.129 
00:35	65.5	65.5	65.5	55	48.9	1	3	68	0.00	30.129 
00:40	65.3	65.3	65.3	55	48.7	1	3	68	0.00	30.129 
00:45	65.0	65.0	65.0	55	48.4	1	3	68	0.00	30.125 
00:50	64.8	64.8	64.8	55	48.2	1	4	68	0.00	30.125 
00:55	64.5	64.5	64.5	56	48.4	1	3	112	0.00	30.125 
01:00	64.5	64.5	64.5	56	48.4	1	4	90	0.00	30.124 
01:05	64.3	64.3	64.3	56	48.3	1	4	90	0.00	30.124 
01:10	64.2	64.2	64.2	56	48.2	1	3	90	0.00	30.124 
01:15	64.0	64.0	64.0	57	48.5	0	2	90	0.00	30.124 
01:20	63.7	63.7	63.7	57	48.2	0	2	90	0.00	30.124 
01:25	63.5	63.5	63.5	57	48.0	0	3	90	0.00	30.124 
01:30	63.4	63.4	63.4	57	47.9	0	1	90	0.00	30.128 
01:35	63.1	63.1	63.1	57	47.6	1	3	90	0.00	30.128 
01:40	63.1	63.1	63.1	57	47.6	1	2	90	0.00	30.128 
01:45	62.9	62.9	62.9	57	47.4	0	2	90	0.00	30.127 
01:50	62.7	62.7	62.7	58	47.7	0	2	90	0.00	30.127 
01:55	62.6	62.6	62.6	58	47.6	0	2	90	0.00	30.127 
02:00	62.4	62.4	62.4	57	47.0	1	2	90	0.00	30.128 
02:05	62.4	62.4	62.4	57	47.0	0	3	90	0.00	30.128 
02:10	62.3	62.3	62.3	58	47.3	0	1	90	0.00	30.128 
02:15	62.1	62.1	62.1	58	47.1	0	2	90	0.00	30.127 
02:20	61.8	61.8	61.8	58	46.9	0	2	90	0.00	30.127 
02:25	61.6	61.6	61.6	59	47.1	0	1	90	0.00	30.127 
02:30	61.5	61.5	61.5	60	47.5	0	0	---	0.00	30.128 
02:35	61.0	61.0	61.0	60	47.0	0	0	---	0.00	30.128 
02:40	60.7	60.7	60.7	61	47.2	0	0	---	0.00	30.128 
02:45	60.4	60.4	60.4	62	47.3	0	0	---	0.00	30.133 
02:50	60.1	60.1	60.1	63	47.5	0	0	---	0.00	30.133 
02:55	59.9	59.9	59.9	64	47.7	0	0	---	0.00	30.133 
03:00	59.6	59.6	59.6	63	47.0	0	0	---	0.00	30.129 
03:05	59.3	59.3	59.3	64	47.1	0	0	---	0.00	30.129 
03:10	59.2	59.2	59.2	64	47.0	0	0	---	0.00	30.129 
03:15	58.9	58.9	58.9	64	46.7	0	0	---	0.00	30.127 
03:20	58.7	58.7	58.7	65	47.0	0	0	---	0.00	30.127 
03:25	58.6	58.6	58.6	65	46.9	0	0	---	0.00	30.127 
03:30	58.4	58.4	58.4	65	46.7	0	0	---	0.00	30.127 
03:35	58.3	58.3	58.3	67	47.4	0	0	---	0.00	30.127 
03:40	58.3	58.3	58.3	67	47.4	0	0	---	0.00	30.127 
03:45	58.1	58.1	58.1	68	47.6	0	0	---	0.00	30.120 
03:50	58.1	58.1	58.1	67	47.2	0	0	---	0.00	30.120 
03:55	58.0	58.0	58.0	67	47.1	0	0	---	0.00	30.120 
04:00	57.8	57.8	57.8	68	47.3	0	0	---	0.00	30.118 
04:05	57.8	57.8	57.8	68	47.3	0	0	---	0.00	30.118 
04:10	57.6	57.6	57.6	69	47.5	0	0	---	0.00	30.118 
04:15	57.5	57.5	57.5	69	47.4	0	0	---	0.00	30.117 
04:20	57.5	57.5	57.5	69	47.4	0	0	---	0.00	30.117 
04:25	57.5	57.5	57.5	69	47.4	0	0	---	0.00	30.117 
04:30	57.5	57.5	57.5	69	47.4	0	1	90	0.00	30.118 
04:35	57.6	57.6	57.6	68	47.1	0	1	90	0.00	30.118 
04:40	57.8	57.8	57.8	68	47.3	0	1	90	0.00	30.118 
04:45	57.8	57.8	57.8	67	46.9	0	0	---	0.00	30.116 
04:50	57.8	57.8	57.8	67	46.9	0	1	90	0.00	30.116 
04:55	57.8	57.8	57.8	67	46.9	0	1	90	0.00	30.116 
05:00	57.8	57.8	57.8	67	46.9	0	1	90	0.00	30.115 
05:05	57.8	57.8	57.8	67	46.9	0	1	90	0.00	30.115 
05:10	57.8	57.8	57.8	67	46.9	0	1	90	0.00	30.115 
05:15	57.6	57.6	57.6	67	46.7	0	1	90	0.00	30.114 
05:20	57.6	57.6	57.6	67	46.7	0	1	90	0.00	30.114 
05:25	57.6	57.6	57.6	67	46.7	0	1	90	0.00	30.114 
05:30	57.5	57.5	57.5	68	47.0	0	0	---	0.00	30.116 
05:35	57.5	57.5	57.5	68	47.0	0	1	90	0.00	30.116 
05:40	57.3	57.3	57.3	68	46.8	0	0	---	0.00	30.116 
05:45	57.3	57.3	57.3	69	47.2	0	0	---	0.00	30.116 
05:50	57.2	57.2	57.2	69	47.1	0	1	90	0.00	30.116 
05:55	57.2	57.2	57.2	69	47.1	0	1	90	0.00	30.116 
06:00	57.2	57.2	57.2	69	47.1	0	1	90	0.00	30.117 
06:05	57.2	57.2	57.2	69	47.1	0	0	---	0.00	30.117 
06:10	57.0	57.0	57.0	70	47.3	0	0	---	0.00	30.117 
06:15	57.0	57.0	57.0	70	47.3	0	1	90	0.00	30.116 
06:20	56.9	56.9	56.9	70	47.2	0	0	---	0.00	30.116 
06:25	56.9	56.9	56.9	70	47.2	0	0	---	0.00	30.116 
06:30	56.7	56.7	56.7	71	47.4	0	1	90	0.00	30.117 
06:35	56.7	56.7	56.7	71	47.4	0	1	90	0.00	30.117 
06:40	56.9	56.9	56.9	71	47.6	0	1	90	0.00	30.117 
06:45	56.9	56.9	56.9	71	47.6	0	1	90	0.00	30.119 
06:50	57.0	57.0	57.0	71	47.7	0	1	90	0.00	30.119 
06:55	57.2	57.2	57.2	71	47.9	0	1	90	0.00	30.119 
07:00	57.3	57.3	57.3	70	47.6	0	1	90	0.00	30.126 
07:05	57.6	57.6	57.6	70	47.9	0	2	90	0.00	30.126 
07:10	57.8	57.8	57.8	70	48.1	0	1	90	0.00	30.126 
07:15	58.1	58.1	58.1	69	48.0	0	1	45	0.00	30.131 
07:20	58.4	58.4	58.4	69	48.3	0	1	45	0.00	30.131 
07:25	58.7	58.7	58.7	69	48.6	0	1	45	0.00	30.131 
07:30	59.0	59.0	59.0	68	48.5	0	1	45	0.00	30.128 
07:35	59.2	59.2	59.2	68	48.6	0	1	45	0.00	30.128 
07:40	59.3	59.3	59.3	68	48.7	0	1	45	0.00	30.128 
07:45	59.3	59.3	59.3	69	49.1	0	1	45	0.00	30.127 
07:50	59.6	59.6	59.6	69	49.4	0	1	45	0.00	30.127 
07:55	59.9	59.9	59.9	69	49.7	0	1	45	0.00	30.127 
08:00	60.1	60.1	60.1	68	49.5	0	1	45	0.00	30.126 
08:05	60.2	60.2	60.2	68	49.6	0	1	45	0.00	30.126 
08:10	60.5	60.5	60.5	68	49.9	0	1	45	0.00	30.126 
08:15	60.9	60.9	60.9	68	50.3	0	1	45	0.00	30.128 
08:20	61.3	61.3	61.3	68	50.6	0	1	45	0.00	30.128 
08:25	61.8	61.8	61.8	68	51.1	0	1	45	0.00	30.128 
08:30	62.3	62.3	62.3	66	50.8	0	2	45	0.00	30.130 
08:35	62.9	62.9	62.9	65	50.9	0	1	45	0.00	30.130 
08:40	63.4	63.4	63.4	65	51.4	0	1	45	0.00	30.130 
08:45	64.0	64.0	64.0	65	52.0	0	1	45	0.00	30.126 
08:50	64.7	64.7	64.7	63	51.8	1	4	45	0.00	30.126 
08:55	65.2	65.2	65.2	64	52.7	0	3	45	0.00	30.126 
09:00	65.8	65.8	65.8	62	52.4	0	2	45	0.00	30.120 
09:05	66.8	66.8	66.8	60	52.5	0	2	45	0.00	30.120 
09:10	68.1	68.1	68.1	59	53.2	0	3	158	0.00	30.120 
09:15	69.1	69.1	69.1	57	53.2	0	2	158	0.00	30.112 
09:20	69.8	69.8	69.8	56	53.4	0	1	158	0.00	30.112 
09:25	70.3	70.3	70.3	55	53.4	0	2	158	0.00	30.112 
09:30	70.8	70.8	70.8	55	53.8	0	1	135	0.00	30.110 
09:35	71.3	71.3	71.3	56	54.8	0	2	135	0.00	30.110 
09:40	71.8	71.8	71.8	54	54.2	0	2	135	0.00	30.110 
09:45	72.7	72.7	72.7	55	55.6	0	1	135	0.00	30.106 
09:50	73.2	73.2	73.2	53	55.0	0	3	135	0.00	30.106 
09:55	74.0	74.0	74.0	51	54.7	0	2	135	0.00	30.106 
10:00	75.1	75.1	77.7	50	55.2	0	1	135	0.00	30.103 
10:05	76.0	76.0	78.1	54	58.1	0	1	135	0.00	30.103 
10:10	76.8	76.8	78.5	50	56.7	0	2	135	0.00	30.103 
10:15	77.6	77.6	78.8	47	55.8	1	2	135	0.00	30.105 
10:20	77.7	77.7	78.9	46	55.2	0	2	158	0.00	30.105 
10:25	77.9	77.9	78.9	45	54.8	1	4	158	0.00	30.105 
10:30	78.3	78.3	79.1	44	54.6	1	3	135	0.00	30.100 
10:35	78.5	78.5	79.2	44	54.7	1	2	135	0.00	30.100 
10:40	78.6	78.6	79.3	44	54.8	0	3	135	0.00	30.100 
10:45	79.2	79.2	79.6	43	54.7	0	2	112	0.00	30.093 
10:50	79.6	79.6	80.0	45	56.4	0	2	112	0.00	30.093 
10:55	80.1	80.1	80.1	41	54.2	0	2	112	0.00	30.093 
11:00	80.5	80.5	80.3	40	53.9	0	4	90	0.00	30.092 
11:05	80.9	80.9	80.6	40	54.3	0	2	90	0.00	30.092 
11:10	81.1	81.1	80.7	40	54.5	1	4	112	0.00	30.092 
11:15	81.1	81.1	80.7	40	54.5	0	2	112	0.00	30.092 
11:20	81.1	81.1	80.5	38	53.1	0	3	112	0.00	30.092 
11:25	81.6	81.6	80.9	38	53.5	1	4	112	0.00	30.092 
11:30	81.8	81.8	81.2	39	54.4	1	4	90	0.00	30.091 
11:35	82.0	82.0	81.3	39	54.6	0	4	90	0.00	30.091 
11:40	82.2	82.2	81.3	37	53.3	1	4	90	0.00	30.091 
11:45	82.0	82.0	81.2	38	53.9	0	2	315	0.00	30.090 
11:50	82.2	82.2	81.2	36	52.6	1	3	315	0.00	30.090 
11:55	82.4	82.4	81.2	35	52.0	1	5	45	0.00	30.090 
12:00	82.6	82.6	81.8	39	55.1	1	4	112	0.00	30.089 
12:05	82.8	82.8	82.0	39	55.3	1	5	22	0.00	30.089 
12:10	82.8	82.8	81.8	37	53.8	0	3	22	0.00	30.089 
12:15	83.2	83.2	81.9	35	52.7	1	3	270	0.00	30.083 
12:20	83.6	83.6	82.1	34	52.2	1	4	270	0.00	30.083 
12:25	83.8	83.8	82.3	34	52.4	1	4	135	0.00	30.083 
12:30	84.0	84.0	82.3	33	51.8	1	4	112	0.00	30.083 
12:35	84.1	84.1	82.3	32	51.0	1	3	90	0.00	30.083 
12:40	84.1	84.1	82.4	33	51.9	1	3	90	0.00	30.083 
12:45	84.1	84.1	82.2	31	50.2	0	2	45	0.00	30.082 
12:50	84.0	84.0	82.2	32	50.9	1	6	68	0.00	30.082 
12:55	84.1	84.1	82.2	31	50.2	2	4	90	0.00	30.082 
13:00	84.1	84.1	82.1	30	49.3	1	5	90	0.00	30.081 
13:05	84.3	84.3	82.4	31	50.3	1	3	90	0.00	30.081 
13:10	84.1	84.1	82.3	32	51.0	1	3	90	0.00	30.081 
13:15	84.3	84.3	82.4	31	50.3	1	3	90	0.00	30.077 
13:20	84.9	84.9	83.1	33	52.6	0	3	90	0.00	30.077 
13:25	85.3	85.3	83.6	34	53.7	0	2	90	0.00	30.077 
13:30	85.5	85.5	83.1	28	48.6	1	3	90	0.00	30.069 
13:35	85.1	85.1	82.8	29	49.2	1	4	90	0.00	30.069 
13:40	85.3	85.3	83.5	33	52.9	1	3	90	0.00	30.069 
13:45	85.5	85.5	83.4	31	51.4	1	4	90	0.00	30.060 
13:50	85.1	85.1	82.9	30	50.1	1	3	90	0.00	30.060 
13:55	84.9	84.9	82.6	28	48.1	1	4	90	0.00	30.060 
14:00	85.3	85.3	82.9	28	48.5	1	3	90	0.00	30.059 
14:05	85.9	85.9	83.4	28	49.0	0	3	90	0.00	30.059 
14:10	86.1	86.1	83.5	27	48.2	1	3	90	0.00	30.059 
14:15	86.1	86.1	83.8	30	51.0	1	6	90	0.00	30.054 
14:20	86.1	86.1	83.6	28	49.1	1	3	22	0.00	30.054 
14:25	86.3	86.3	83.7	27	48.3	1	4	90	0.00	30.054 
14:30	86.3	86.3	84.0	30	51.2	1	3	90	0.00	30.046 
14:35	86.1	86.1	83.5	27	48.2	2	5	112	0.00	30.046 
14:40	86.1	86.1	84.3	33	53.6	1	4	112	0.00	30.046 
14:45	86.1	86.1	83.6	28	49.1	1	4	112	0.00	30.037 
14:50	86.3	86.3	83.9	29	50.3	1	4	112	0.00	30.037 
14:55	86.5	86.5	83.8	27	48.5	1	4	112	0.00	30.037 
15:00	86.5	86.5	83.8	27	48.5	1	4	68	0.00	30.032 
15:05	86.7	86.7	83.9	26	47.7	1	5	68	0.00	30.032 
15:10	87.0	87.0	84.4	28	49.9	0	2	90	0.00	30.032 
15:15	87.2	87.2	84.5	27	49.1	1	4	90	0.00	30.031 
15:20	87.4	87.4	84.7	27	49.3	0	2	45	0.00	30.031 
15:25	87.8	87.8	85.2	28	50.6	0	2	45	0.00	30.031 
15:30	87.8	87.8	84.9	26	48.6	1	5	112	0.00	30.016 
15:35	87.8	87.8	85.2	28	50.6	0	1	112	0.00	30.016 
15:40	88.0	88.0	85.1	26	48.8	2	4	112	0.00	30.016 
15:45	87.6	87.6	84.9	27	49.4	1	5	112	0.00	30.010 
15:50	88.0	88.0	85.4	28	50.8	1	3	22	0.00	30.010 
15:55	88.2	88.2	85.6	28	50.9	0	1	0	0.00	30.010 
16:00	88.4	88.4	85.7	27	50.1	1	3	0	0.00	30.002 
16:05	88.4	88.4	85.7	27	50.1	0	3	292	0.00	30.002 
16:10	88.6	88.6	85.7	26	49.3	1	2	292	0.00	30.002 
16:15	88.6	88.6	85.7	26	49.3	1	2	45	0.00	29.996 
16:20	88.6	88.6	85.7	26	49.3	0	3	45	0.00	29.996 
16:25	88.8	88.8	86.1	27	50.5	0	3	45	0.00	29.996 
16:30	89.0	89.0	86.1	26	49.6	0	4	90	0.00	29.985 
16:35	89.0	89.0	86.4	28	51.6	0	3	90	0.00	29.985 
16:40	88.8	88.8	85.8	25	48.4	1	2	90	0.00	29.985 
16:45	88.4	88.4	85.4	25	48.1	1	3	270	0.00	29.979 
16:50	88.6	88.6	85.7	26	49.3	0	2	270	0.00	29.979 
16:55	88.8	88.8	86.1	27	50.5	1	3	135	0.00	29.979 
17:00	88.8	88.8	85.8	25	48.4	1	2	270	0.00	29.970 
17:05	88.6	88.6	85.6	25	48.2	1	2	270	0.00	29.970 
17:10	88.4	88.4	85.4	25	48.1	1	3	270	0.00	29.970 
17:15	88.2	88.2	85.5	27	50.0	0	1	270	0.00	29.970 
17:20	88.8	88.8	85.9	26	49.5	0	1	270	0.00	29.970 
17:25	89.3	89.3	86.6	27	50.9	0	1	270	0.00	29.970 
17:30	89.7	89.7	86.7	25	49.2	0	2	270	0.00	29.966 
17:35	89.7	89.7	86.8	26	50.2	1	3	90	0.00	29.966 
17:40	89.3	89.3	86.3	25	48.8	0	3	90	0.00	29.966 
17:45	89.0	89.0	86.4	28	51.6	0	1	90	0.00	29.964 
17:50	88.8	88.8	85.6	24	47.3	1	4	248	0.00	29.964 
17:55	88.2	88.2	85.3	26	48.9	0	2	270	0.00	29.964 
18:00	88.0	88.0	85.3	27	49.8	0	2	292	0.00	29.963 
18:05	87.6	87.6	85.0	28	50.4	0	2	292	0.00	29.963 
18:10	87.4	87.4	84.8	28	50.3	0	2	292	0.00	29.963 
18:15	87.0	87.0	84.4	28	49.9	0	3	292	0.00	29.954 
18:20	86.7	86.7	84.1	28	49.7	0	2	292	0.00	29.954 
18:25	86.5	86.5	84.1	29	50.4	0	1	292	0.00	29.954 
18:30	86.3	86.3	83.8	28	49.3	0	2	292	0.00	29.954 
18:35	86.3	86.3	84.0	30	51.2	0	1	0	0.00	29.954 
18:40	86.1	86.1	83.5	27	48.2	0	4	0	0.00	29.954 
18:45	86.1	86.1	83.7	29	50.1	0	1	112	0.00	29.945 
18:50	85.9	85.9	83.5	29	49.9	0	1	112	0.00	29.945 
18:55	85.9	85.9	83.5	29	49.9	0	1	112	0.00	29.945 
19:00	85.9	85.9	83.5	29	49.9	0	2	112	0.00	29.939 
19:05	85.9	85.9	83.7	30	50.8	0	3	112	0.00	29.939 
19:10	85.9	85.9	83.7	30	50.8	0	1	112	0.00	29.939 
19:15	85.7	85.7	83.4	29	49.7	0	1	112	0.00	29.936 
19:20	85.5	85.5	83.3	30	50.5	0	2	112	0.00	29.936 
19:25	85.5	85.5	83.4	31	51.4	0	1	112	0.00	29.936 
19:30	85.3	85.3	83.2	31	51.2	0	2	112	0.00	29.940 
19:35	85.3	85.3	83.2	31	51.2	0	2	112	0.00	29.940 
19:40	85.1	85.1	83.2	32	51.9	0	2	112	0.00	29.940 
19:45	84.9	84.9	83.1	33	52.6	0	1	112	0.00	29.938 
19:50	84.9	84.9	82.9	31	50.9	0	1	112	0.00	29.938 
19:55	84.9	84.9	82.9	31	50.9	0	1	112	0.00	29.938 
20:00	84.7	84.7	82.7	31	50.7	0	1	112	0.00	29.938 
20:05	84.3	84.3	82.5	32	51.2	0	1	112	0.00	29.938 
20:10	84.1	84.1	82.4	33	51.9	0	0	---	0.00	29.938 
20:15	83.8	83.8	82.2	33	51.6	0	0	---	0.00	29.934 
20:20	83.4	83.4	81.9	34	52.1	0	0	---	0.00	29.934 
20:25	83.2	83.2	81.8	34	51.9	0	0	---	0.00	29.934 
20:30	82.8	82.8	81.4	34	51.5	0	0	---	0.00	29.935 
20:35	82.6	82.6	81.4	35	52.1	0	0	---	0.00	29.935 
20:40	82.2	82.2	81.1	35	51.8	0	0	---	0.00	29.935 
20:45	82.0	82.0	80.9	35	51.6	0	0	---	0.00	29.932 
20:50	81.6	81.6	80.7	36	52.0	0	0	---	0.00	29.932 
20:55	81.2	81.2	80.5	37	52.4	0	0	---	0.00	29.932 
21:00	80.9	80.9	80.4	38	52.9	0	0	---	0.00	29.936 
21:05	80.5	80.5	80.2	39	53.2	0	0	---	0.00	29.936 
21:10	79.9	79.9	79.9	40	53.4	0	0	---	0.00	29.936 
21:15	79.6	79.6	79.7	41	53.8	0	0	---	0.00	29.928 
21:20	79.2	79.2	79.4	40	52.8	0	0	---	0.00	29.928 
21:25	79.0	79.0	79.3	40	52.6	0	0	---	0.00	29.928 
21:30	78.8	78.8	79.3	42	53.7	0	0	---	0.00	29.929 
21:35	78.5	78.5	79.1	41	52.8	0	0	---	0.00	29.929 
21:40	78.3	78.3	79.0	42	53.3	0	0	---	0.00	29.929 
21:45	78.1	78.1	78.9	43	53.8	0	0	---	0.00	29.931 
21:50	77.9	77.9	78.8	43	53.6	0	0	---	0.00	29.931 
21:55	77.6	77.6	78.7	43	53.3	0	0	---	0.00	29.931 
22:00	77.4	77.4	78.6	43	53.1	0	0	---	0.00	29.938 
22:05	77.4	77.4	78.6	43	53.1	0	0	---	0.00	29.938 
22:10	77.2	77.2	78.5	43	52.9	0	0	---	0.00	29.938 
22:15	77.4	77.4	78.6	44	53.8	0	0	---	0.00	29.939 
22:20	77.4	77.4	78.6	44	53.8	0	0	---	0.00	29.939 
22:25	77.2	77.2	78.5	45	54.2	0	0	---	0.00	29.939 
22:30	77.0	77.0	78.4	45	54.0	0	0	---	0.00	29.944 
22:35	76.8	76.8	78.3	45	53.8	0	0	---	0.00	29.944 
22:40	76.7	76.7	78.3	46	54.3	0	0	---	0.00	29.944 
22:45	76.5	76.5	78.3	47	54.7	0	0	---	0.00	29.952 
22:50	76.3	76.3	78.2	47	54.6	0	0	---	0.00	29.952 
22:55	76.1	76.1	78.1	49	55.5	0	0	---	0.00	29.952 
23:00	76.0	76.0	78.1	49	55.4	0	0	---	0.00	29.961 
23:05	76.0	76.0	78.1	50	56.0	0	0	---	0.00	29.961 
23:10	76.0	76.0	78.1	50	56.0	0	0	---	0.00	29.961 
23:15	76.1	76.1	78.1	52	57.2	0	0	---	0.00	29.966 
23:20	76.5	76.5	78.4	53	58.1	0	1	112	0.00	29.966 
23:25	76.7	76.7	78.5	54	58.8	0	1	112	0.00	29.966 
23:30	77.0	77.0	78.7	55	59.6	0	2	112	0.00	29.972 
23:35	77.7	77.7	79.3	56	60.7	1	5	270	0.00	29.972 
23:40	78.1	78.1	79.6	57	61.6	0	1	270	0.00	29.972 
23:45	78.3	78.3	79.8	57	61.8	0	3	270	0.00	29.978 
23:50	78.3	78.3	79.8	57	61.8	0	2	270	0.00	29.978 
23:55	78.3	78.3	79.9	58	62.3	0	2	270	0.00	29.978 

CoCoRaHS
IN-AL-39
A2 Web Hosting
Creative Commons License
GoDaddy
search engine by freefind advanced

loaded 2018-11-16 10:41:53 • last modified 2010-11-18 10:43:29
Privacy PolicyDisclaimer
• wx.awcolley.com is powered by PmWiki v.2002016 •
• all content (unless otherwise noted) © 2018 A W Colley